Time;durP1;ratioP1;P1;durP2;ratioP2;P2;SDS_P1;SDS_P2;PMS_P1;PMS_P2;Temp;Humidity;BMP_temperature;BMP_pressure;BME280_temperature;BME280_humidity;BME280_pressure;Samples;Min_cycle;Max_cycle;Signal;HPM_P1;HPM_P2
2022/04/27 00:00:22;;;;;;;19.77;14.93;;;7.10;99.90;;;;;;5071791;28;20016;-72
2022/04/27 00:02:48;;;;;;;22.90;17.52;;;7.10;99.90;;;;;;5070594;28;20020;-73
2022/04/27 00:05:13;;;;;;;22.33;16.23;;;7.10;99.90;;;;;;5069416;28;20376;-72
2022/04/27 00:07:39;;;;;;;22.88;16.15;;;7.20;99.90;;;;;;5071204;28;20445;-73
2022/04/27 00:10:05;;;;;;;22.40;16.20;;;7.20;99.90;;;;;;5071411;28;20045;-73
2022/04/27 00:12:34;;;;;;;22.45;16.98;;;7.10;99.90;;;;;;5071146;28;20099;-74
2022/04/27 00:14:59;;;;;;;22.63;16.15;;;7.20;99.90;;;;;;5071316;28;20120;-73
2022/04/27 00:17:25;;;;;;;22.63;16.98;;;7.20;99.90;;;;;;5070789;28;20052;-72
2022/04/27 00:19:51;;;;;;;23.25;16.80;;;7.20;99.90;;;;;;5071751;28;20032;-72
2022/04/27 00:22:16;;;;;;;21.17;15.07;;;7.20;99.90;;;;;;5071056;28;20447;-72
2022/04/27 00:24:42;;;;;;;24.30;16.23;;;7.20;99.90;;;;;;5071474;28;20381;-72
2022/04/27 00:27:08;;;;;;;24.13;17.95;;;7.20;99.90;;;;;;5071741;28;20025;-72
2022/04/27 00:29:34;;;;;;;23.25;17.30;;;7.20;99.90;;;;;;5076972;28;20057;-71
2022/04/27 00:32:00;;;;;;;21.35;17.00;;;7.30;99.90;;;;;;5075114;28;20044;-72
2022/04/27 00:34:25;;;;;;;21.40;16.73;;;7.30;99.90;;;;;;5075024;28;20032;-72
2022/04/27 00:36:51;;;;;;;21.95;17.15;;;7.20;99.90;;;;;;5075475;28;20033;-72
2022/04/27 00:39:17;;;;;;;20.92;16.38;;;7.20;99.90;;;;;;5074455;28;20381;-71
2022/04/27 00:41:59;;;;;;;29.15;20.45;;;7.20;99.90;;;;;;5070062;28;20466;-72
2022/04/27 00:44:28;;;;;;;27.85;20.08;;;7.20;99.90;;;;;;5054610;28;20411;-72
2022/04/27 00:46:53;;;;;;;30.30;21.50;;;7.10;99.90;;;;;;5073977;28;20024;-72
2022/04/27 00:49:19;;;;;;;28.33;20.83;;;7.10;99.90;;;;;;5107249;28;20032;-72
2022/04/27 00:51:45;;;;;;;30.38;21.88;;;7.10;99.90;;;;;;5074785;28;20040;-72
2022/04/27 00:54:12;;;;;;;28.73;20.85;;;7.10;99.90;;;;;;5074676;28;20063;-72
2022/04/27 00:56:39;;;;;;;33.13;21.80;;;7.10;99.90;;;;;;5074046;28;20059;-72
2022/04/27 00:59:05;;;;;;;28.40;21.15;;;7.20;99.90;;;;;;5077187;28;20033;-72
2022/04/27 01:01:31;;;;;;;29.48;21.75;;;7.10;99.90;;;;;;5075517;28;20587;-73
2022/04/27 01:03:57;;;;;;;30.45;21.85;;;7.10;99.90;;;;;;5075411;28;20028;-72
2022/04/27 01:06:22;;;;;;;27.80;21.00;;;7.20;99.90;;;;;;5072613;28;20036;-71
2022/04/27 01:08:48;;;;;;;31.33;23.08;;;7.10;99.90;;;;;;5074686;28;20052;-72
2022/04/27 01:11:15;;;;;;;30.83;22.23;;;7.20;99.90;;;;;;5074017;28;20036;-71
2022/04/27 01:13:41;;;;;;;29.10;21.77;;;7.20;99.90;;;;;;5074857;28;20024;-72
2022/04/27 01:16:07;;;;;;;30.42;21.40;;;7.20;99.90;;;;;;5074232;28;20025;-72
2022/04/27 01:18:33;;;;;;;29.27;21.58;;;7.20;99.90;;;;;;5073795;28;20630;-72
2022/04/27 01:20:59;;;;;;;29.10;21.30;;;7.20;99.90;;;;;;5074894;28;20027;-72
2022/04/27 01:23:25;;;;;;;31.33;22.73;;;7.20;99.90;;;;;;5073983;28;20028;-72
2022/04/27 01:25:55;;;;;;;30.55;21.15;;;7.20;99.90;;;;;;5071230;28;20031;-72
2022/04/27 01:28:26;;;;;;;35.17;22.77;;;7.20;99.90;;;;;;5073257;28;20028;-72
2022/04/27 01:30:57;;;;;;;32.53;23.95;;;7.20;99.90;;;;;;5089980;28;20031;-72
2022/04/27 01:33:23;;;;;;;31.60;22.20;;;7.30;99.90;;;;;;5093712;28;20036;-72
2022/04/27 01:35:49;;;;;;;39.83;24.33;;;7.30;99.90;;;;;;5087006;28;20020;-72
2022/04/27 01:38:16;;;;;;;40.75;23.90;;;7.30;99.90;;;;;;5073664;28;20036;-72
2022/04/27 01:40:42;;;;;;;34.00;23.52;;;7.30;99.90;;;;;;5073091;28;20115;-72
2022/04/27 01:43:07;;;;;;;34.80;23.67;;;7.30;99.90;;;;;;5074143;28;20522;-72
2022/04/27 01:45:33;;;;;;;33.88;23.10;;;7.30;99.90;;;;;;5071707;28;20032;-72
2022/04/27 01:47:59;;;;;;;51.95;25.48;;;7.30;99.90;;;;;;5074096;28;20031;-72
2022/04/27 01:50:25;;;;;;;37.00;25.55;;;7.30;99.90;;;;;;5072882;28;20052;-73
2022/04/27 01:55:37;;;;;;;39.20;25.83;;;7.40;99.90;;;;;;5072724;28;20078;-73
2022/04/27 01:58:03;;;;;;;36.90;25.92;;;7.40;99.90;;;;;;5074024;28;20378;-73
2022/04/27 02:00:28;;;;;;;41.45;27.05;;;7.40;99.90;;;;;;5080242;28;20031;-74
2022/04/27 02:02:54;;;;;;;40.72;27.45;;;7.50;99.90;;;;;;5073655;28;20035;-72
2022/04/27 02:05:21;;;;;;;39.95;27.38;;;7.50;99.90;;;;;;5072892;28;20025;-72
2022/04/27 02:07:47;;;;;;;37.85;25.77;;;7.50;99.90;;;;;;5073200;28;20040;-72
2022/04/27 02:10:13;;;;;;;41.08;26.52;;;7.50;99.90;;;;;;5072961;28;20139;-73
2022/04/27 02:12:38;;;;;;;42.20;27.60;;;7.40;99.90;;;;;;5072595;28;20045;-73
2022/04/27 02:15:06;;;;;;;45.97;29.55;;;7.40;99.90;;;;;;5073674;28;20028;-72
2022/04/27 02:17:31;;;;;;;41.78;26.98;;;7.50;99.90;;;;;;5072564;28;20073;-72
2022/04/27 02:19:57;;;;;;;44.88;29.45;;;7.40;99.90;;;;;;5073490;28;20107;-73
2022/04/27 02:22:23;;;;;;;43.00;28.65;;;7.50;99.90;;;;;;5072616;28;20032;-73
2022/04/27 02:24:48;;;;;;;45.03;28.05;;;7.60;99.90;;;;;;5073178;28;20024;-73
2022/04/27 02:27:14;;;;;;;43.40;28.48;;;7.60;99.90;;;;;;5071539;28;20385;-73
2022/04/27 02:29:40;;;;;;;40.00;28.35;;;7.60;99.90;;;;;;5075019;28;20131;-72
2022/04/27 02:32:06;;;;;;;38.65;26.88;;;7.50;99.90;;;;;;5093429;28;20058;-73
2022/04/27 02:34:31;;;;;;;38.33;26.63;;;7.60;99.90;;;;;;5081624;28;20033;-72
2022/04/27 02:36:58;;;;;;;36.17;25.35;;;7.70;99.90;;;;;;5072554;28;20072;-73
2022/04/27 02:39:23;;;;;;;40.67;27.23;;;7.80;99.90;;;;;;5072087;28;20136;-72
2022/04/27 02:41:49;;;;;;;38.72;25.52;;;7.70;99.90;;;;;;5072729;28;20036;-72
2022/04/27 02:44:15;;;;;;;37.38;26.48;;;7.60;99.90;;;;;;5072718;28;20028;-72
2022/04/27 02:46:41;;;;;;;39.40;25.88;;;7.60;99.90;;;;;;5071588;28;20035;-73
2022/04/27 02:51:53;;;;;;;37.25;25.50;;;7.60;99.90;;;;;;5072098;28;20059;-73
2022/04/27 02:54:21;;;;;;;37.25;25.35;;;7.60;99.90;;;;;;5072518;28;20109;-72
2022/04/27 02:56:48;;;;;;;36.85;25.35;;;7.60;99.90;;;;;;5072266;28;20029;-73
2022/04/27 02:59:14;;;;;;;38.60;26.23;;;7.60;99.90;;;;;;5072919;28;20099;-73
2022/04/27 03:01:40;;;;;;;34.50;24.48;;;7.60;99.90;;;;;;5082976;28;20197;-72
2022/04/27 03:04:07;;;;;;;36.20;25.80;;;7.60;99.90;;;;;;5072578;28;20067;-73
2022/04/27 03:06:32;;;;;;;37.08;25.95;;;7.60;99.90;;;;;;5071301;28;20075;-72
2022/04/27 03:08:58;;;;;;;37.15;25.30;;;7.60;99.90;;;;;;5072281;28;20426;-73
2022/04/27 03:11:24;;;;;;;34.45;23.98;;;7.70;99.90;;;;;;5071695;28;20071;-71
2022/04/27 03:13:50;;;;;;;32.25;24.05;;;7.90;99.90;;;;;;5071879;28;20020;-72
2022/04/27 03:16:16;;;;;;;33.50;23.30;;;7.80;99.90;;;;;;5072295;28;20470;-72
2022/04/27 03:18:42;;;;;;;35.35;23.45;;;7.80;99.90;;;;;;5071473;28;20047;-73
2022/04/27 03:21:08;;;;;;;32.65;23.23;;;7.80;99.90;;;;;;5071991;28;20024;-73
2022/04/27 03:23:34;;;;;;;33.03;23.52;;;7.80;99.90;;;;;;5070914;28;20040;-73
2022/04/27 03:25:59;;;;;;;36.03;24.52;;;7.70;99.90;;;;;;5072470;28;20029;-73
2022/04/27 03:28:25;;;;;;;34.25;22.85;;;7.70;99.90;;;;;;5071296;28;20099;-72
2022/04/27 03:30:51;;;;;;;35.33;23.63;;;7.70;99.90;;;;;;5082209;28;20020;-72
2022/04/27 03:33:17;;;;;;;34.70;23.35;;;7.60;99.90;;;;;;5078007;28;20044;-72
2022/04/27 03:35:43;;;;;;;31.02;23.05;;;7.60;99.90;;;;;;5071336;28;20020;-73
2022/04/27 03:38:09;;;;;;;36.38;24.13;;;7.60;99.90;;;;;;5071614;28;20032;-72
2022/04/27 03:40:35;;;;;;;34.47;23.13;;;7.70;99.90;;;;;;5071228;28;20028;-72
2022/04/27 03:43:01;;;;;;;32.83;22.10;;;7.70;99.90;;;;;;5071791;28;20075;-72
2022/04/27 03:45:27;;;;;;;31.33;22.52;;;7.70;99.90;;;;;;5070943;28;20032;-71
2022/04/27 03:47:53;;;;;;;38.63;24.23;;;7.70;99.90;;;;;;5071884;28;20025;-72
2022/04/27 03:50:18;;;;;;;30.80;22.20;;;7.80;99.90;;;;;;5071928;28;20381;-73
2022/04/27 03:52:44;;;;;;;33.35;23.08;;;7.80;99.90;;;;;;5070957;28;20618;-72
2022/04/27 03:55:11;;;;;;;31.50;22.60;;;7.80;99.90;;;;;;5071988;28;20509;-72
2022/04/27 03:57:37;;;;;;;34.67;22.33;;;7.80;99.90;;;;;;5070652;28;20458;-72
2022/04/27 04:00:05;;;;;;;30.85;21.13;;;7.90;99.90;;;;;;5072401;28;20385;-72
2022/04/27 04:02:31;;;;;;;31.05;21.48;;;7.90;99.90;;;;;;5091307;28;20032;-72
2022/04/27 04:04:56;;;;;;;31.70;21.90;;;7.80;99.90;;;;;;5085157;28;20037;-71
2022/04/27 04:07:22;;;;;;;33.97;22.63;;;7.80;99.90;;;;;;5075618;28;20036;-72
2022/04/27 04:09:48;;;;;;;31.90;22.90;;;7.80;99.90;;;;;;5073699;28;20563;-73
2022/04/27 04:12:14;;;;;;;32.78;22.38;;;7.70;99.90;;;;;;5075421;28;20473;-72
2022/04/27 04:14:40;;;;;;;31.40;21.73;;;7.70;99.90;;;;;;5075194;28;20477;-72
2022/04/27 04:17:06;;;;;;;35.75;24.35;;;7.60;99.90;;;;;;5075128;28;20029;-72
2022/04/27 04:19:32;;;;;;;36.22;24.13;;;7.60;99.90;;;;;;5075225;28;20028;-71
2022/04/27 04:21:59;;;;;;;33.88;23.98;;;7.60;99.90;;;;;;5075824;28;20028;-72
2022/04/27 04:24:25;;;;;;;36.15;23.58;;;7.60;99.90;;;;;;5074999;28;20032;-72
2022/04/27 04:29:35;;;;;;;38.13;25.15;;;7.60;99.90;;;;;;5074259;28;20385;-72
2022/04/27 04:32:01;;;;;;;38.22;25.45;;;7.70;99.90;;;;;;5092305;28;20032;-72
2022/04/27 04:34:26;;;;;;;35.47;22.83;;;7.70;99.90;;;;;;5094917;28;20024;-71
2022/04/27 04:36:52;;;;;;;39.55;25.85;;;7.70;99.90;;;;;;5075409;28;20021;-73
2022/04/27 04:39:18;;;;;;;36.28;24.83;;;7.70;99.90;;;;;;5075104;28;20052;-73
2022/04/27 04:41:43;;;;;;;37.20;23.88;;;7.70;99.90;;;;;;5068808;28;20029;-72
2022/04/27 04:44:09;;;;;;;36.72;24.45;;;7.70;99.90;;;;;;5061872;28;20470;-72
2022/04/27 04:46:35;;;;;;;34.90;23.52;;;7.80;99.90;;;;;;5073904;28;20035;-73
2022/04/27 04:49:00;;;;;;;33.92;23.20;;;7.80;99.90;;;;;;5074935;28;20052;-73
2022/04/27 04:51:26;;;;;;;33.20;23.02;;;7.70;99.90;;;;;;5074376;28;20081;-72
2022/04/27 04:53:52;;;;;;;34.03;23.65;;;7.70;99.90;;;;;;5074778;28;20378;-73
2022/04/27 04:56:17;;;;;;;33.30;23.65;;;7.80;99.90;;;;;;5074457;28;20443;-73
2022/04/27 04:58:43;;;;;;;36.55;23.90;;;7.80;99.90;;;;;;5073890;28;20223;-72
2022/04/27 05:01:08;;;;;;;37.22;25.10;;;7.80;99.90;;;;;;5074993;28;20147;-74
2022/04/27 05:03:37;;;;;;;36.90;24.15;;;7.80;99.90;;;;;;5073927;28;20032;-73
2022/04/27 05:06:03;;;;;;;37.13;25.33;;;7.80;99.90;;;;;;5074729;28;20483;-74
2022/04/27 05:08:28;;;;;;;36.60;24.58;;;7.90;99.90;;;;;;5073888;28;20177;-72
2022/04/27 05:10:54;;;;;;;37.50;25.58;;;7.90;99.90;;;;;;5074853;28;20107;-72
2022/04/27 05:13:20;;;;;;;38.58;25.65;;;7.90;99.90;;;;;;5074087;28;20405;-73
2022/04/27 05:15:45;;;;;;;43.17;27.42;;;7.90;99.90;;;;;;5073286;28;20032;-73
2022/04/27 05:18:12;;;;;;;44.88;28.88;;;7.90;99.90;;;;;;5075084;28;20089;-73
2022/04/27 05:20:38;;;;;;;42.70;28.35;;;8.00;99.90;;;;;;5074246;28;20500;-73
2022/04/27 05:23:05;;;;;;;42.63;28.98;;;8.00;99.90;;;;;;5075243;28;20036;-73
2022/04/27 05:25:31;;;;;;;40.33;27.77;;;8.00;99.90;;;;;;5073238;28;20023;-72
2022/04/27 05:27:57;;;;;;;39.22;25.63;;;8.00;99.90;;;;;;5073248;28;20391;-73
2022/04/27 05:33:07;;;;;;;40.20;27.00;;;8.00;99.90;;;;;;5072200;28;20175;-72
2022/04/27 05:35:39;;;;;;;42.83;26.58;;;8.00;99.90;;;;;;5073174;28;20052;-74
2022/04/27 05:38:05;;;;;;;42.20;28.00;;;8.10;99.90;;;;;;5073243;28;20040;-72
2022/04/27 05:40:31;;;;;;;37.47;26.02;;;8.10;99.90;;;;;;5073167;28;20114;-72
2022/04/27 05:42:57;;;;;;;42.92;27.27;;;8.10;99.90;;;;;;5074180;28;20051;-72
2022/04/27 05:45:24;;;;;;;41.17;27.33;;;8.10;99.90;;;;;;5073777;28;20028;-72
2022/04/27 05:47:49;;;;;;;41.20;27.55;;;8.10;99.90;;;;;;5072259;28;20439;-73
2022/04/27 05:50:15;;;;;;;41.78;27.60;;;8.20;99.90;;;;;;5073854;28;20017;-72
2022/04/27 05:52:56;;;;;;;42.78;27.25;;;8.20;99.90;;;;;;5073195;28;20075;-73
2022/04/27 05:55:22;;;;;;;42.95;28.02;;;8.20;99.90;;;;;;5073667;28;20021;-74
2022/04/27 05:57:48;;;;;;;40.58;27.75;;;8.30;99.90;;;;;;5071955;28;20033;-72
2022/04/27 06:00:14;;;;;;;42.78;28.15;;;8.30;99.90;;;;;;5073817;28;20029;-72
2022/04/27 06:02:40;;;;;;;38.17;26.10;;;8.40;99.90;;;;;;5073866;28;20036;-74
2022/04/27 06:05:08;;;;;;;43.97;28.17;;;8.40;99.90;;;;;;5073616;28;20116;-72
2022/04/27 06:07:35;;;;;;;39.13;26.35;;;8.50;99.90;;;;;;5072668;28;20024;-72
2022/04/27 06:10:03;;;;;;;39.80;26.35;;;8.50;99.90;;;;;;5073112;28;20040;-72
2022/04/27 06:12:34;;;;;;;44.08;26.20;;;8.50;99.90;;;;;;5073360;28;20043;-73
2022/04/27 06:15:01;;;;;;;39.25;26.88;;;8.70;99.90;;;;;;5072907;28;20112;-72
2022/04/27 06:17:26;;;;;;;36.70;24.02;;;8.70;99.90;;;;;;5075368;28;20023;-75
2022/04/27 06:19:52;;;;;;;34.78;24.75;;;8.70;99.90;;;;;;5071411;28;20343;-73
2022/04/27 06:22:20;;;;;;;38.40;25.65;;;8.80;99.90;;;;;;5072868;28;20474;-76
2022/04/27 06:24:46;;;;;;;38.17;24.23;;;8.80;99.90;;;;;;5071101;28;20052;-73
2022/04/27 06:27:11;;;;;;;36.00;25.00;;;8.80;99.90;;;;;;5071377;28;20109;-74
2022/04/27 06:29:37;;;;;;;36.00;24.45;;;8.90;99.90;;;;;;5072807;28;20032;-73
2022/04/27 06:32:03;;;;;;;34.35;24.52;;;9.00;99.90;;;;;;5071421;28;20067;-73
2022/04/27 06:34:29;;;;;;;35.83;24.33;;;9.10;99.90;;;;;;5064421;28;20385;-73
2022/04/27 06:36:55;;;;;;;34.85;23.88;;;9.20;99.90;;;;;;5068730;28;20470;-73
2022/04/27 06:39:21;;;;;;;30.52;22.65;;;9.40;99.90;;;;;;5072681;28;20021;-73
2022/04/27 06:41:46;;;;;;;29.35;21.95;;;9.50;99.90;;;;;;5071798;28;20020;-72
2022/04/27 06:44:12;;;;;;;29.63;21.67;;;9.70;99.90;;;;;;5072775;28;20064;-71
2022/04/27 06:46:38;;;;;;;29.40;21.23;;;9.80;99.90;;;;;;5070831;28;20115;-73
2022/04/27 06:49:03;;;;;;;28.08;20.65;;;9.90;99.90;;;;;;5072605;28;20741;-73
2022/04/27 06:51:29;;;;;;;28.17;21.38;;;9.90;99.90;;;;;;5071953;28;20070;-73
2022/04/27 06:53:55;;;;;;;28.83;20.92;;;10.00;99.90;;;;;;5071397;28;20047;-73
2022/04/27 06:56:21;;;;;;;27.83;21.05;;;10.00;99.90;;;;;;5072554;28;20377;-73
2022/04/27 06:58:46;;;;;;;31.30;21.77;;;10.00;99.90;;;;;;5071334;28;20012;-72
2022/04/27 07:01:13;;;;;;;32.33;23.13;;;10.00;99.90;;;;;;5073069;28;20453;-72
2022/04/27 07:03:39;;;;;;;30.20;21.42;;;10.00;99.90;;;;;;5074852;28;20070;-71
2022/04/27 07:06:05;;;;;;;27.65;20.42;;;10.00;99.90;;;;;;5079670;28;20028;-72
2022/04/27 07:08:32;;;;;;;29.75;20.17;;;9.90;99.90;;;;;;5071969;28;20053;-71
2022/04/27 07:10:57;;;;;;;29.02;20.80;;;9.90;99.90;;;;;;5071589;28;20044;-73
2022/04/27 07:13:23;;;;;;;26.92;20.23;;;9.80;99.90;;;;;;5071974;28;20470;-72
2022/04/27 07:15:51;;;;;;;28.33;20.15;;;9.80;99.90;;;;;;5053654;28;20040;-72
2022/04/27 07:18:17;;;;;;;25.17;17.75;;;9.70;99.90;;;;;;5071961;28;20040;-72
2022/04/27 07:20:43;;;;;;;24.75;16.15;;;9.90;99.90;;;;;;5071489;28;20024;-72
2022/04/27 07:23:09;;;;;;;23.17;16.63;;;9.90;99.90;;;;;;5071860;28;20549;-73
2022/04/27 07:25:34;;;;;;;23.90;15.07;;;9.80;99.90;;;;;;5070952;28;20024;-72
2022/04/27 07:28:00;;;;;;;21.52;14.98;;;9.80;99.90;;;;;;5071493;28;20032;-73
2022/04/27 07:30:26;;;;;;;21.10;15.27;;;9.80;99.90;;;;;;5070913;28;20095;-72
2022/04/27 07:32:52;;;;;;;19.27;14.80;;;9.80;99.90;;;;;;5079280;28;20024;-72
2022/04/27 07:35:18;;;;;;;19.15;14.05;;;9.80;99.90;;;;;;5068376;28;20033;-72
2022/04/27 07:37:44;;;;;;;19.27;14.55;;;9.90;99.90;;;;;;5070714;28;20045;-72
2022/04/27 07:40:12;;;;;;;18.73;14.57;;;10.00;99.90;;;;;;5070858;28;20032;-73
2022/04/27 07:42:39;;;;;;;18.05;13.80;;;10.10;99.90;;;;;;5070936;28;20113;-72
2022/04/27 07:45:06;;;;;;;18.70;13.50;;;10.20;99.90;;;;;;5071704;28;20025;-72
2022/04/27 07:47:43;;;;;;;21.25;13.95;;;10.30;99.90;;;;;;5071266;28;20037;-73
2022/04/27 07:50:11;;;;;;;19.33;13.85;;;10.30;99.90;;;;;;5072193;28;20038;-73
2022/04/27 07:52:37;;;;;;;18.73;13.52;;;10.40;99.90;;;;;;5070824;28;20033;-72
2022/04/27 07:55:04;;;;;;;20.27;14.38;;;10.40;99.90;;;;;;5072163;28;20036;-73
2022/04/27 07:57:31;;;;;;;17.98;13.45;;;10.50;99.90;;;;;;5071481;28;20028;-73
2022/04/27 07:59:57;;;;;;;16.73;12.60;;;10.60;99.90;;;;;;5070614;28;20028;-75
2022/04/27 08:02:22;;;;;;;15.52;11.88;;;10.70;99.90;;;;;;5073651;28;20036;-76
2022/04/27 08:04:48;;;;;;;19.02;13.25;;;10.80;99.90;;;;;;5081477;28;20028;-72
2022/04/27 08:07:13;;;;;;;17.75;12.75;;;10.90;99.90;;;;;;5071026;28;20370;-71
2022/04/27 08:09:39;;;;;;;17.63;13.40;;;11.10;99.90;;;;;;5103157;28;20478;-71
2022/04/27 08:12:05;;;;;;;17.75;12.75;;;11.40;99.90;;;;;;5071746;28;20059;-71
2022/04/27 08:14:31;;;;;;;15.75;11.98;;;11.70;99.90;;;;;;5071760;28;20366;-71
2022/04/27 08:16:59;;;;;;;17.25;11.85;;;11.80;99.90;;;;;;5070360;28;20013;-72
2022/04/27 08:19:25;;;;;;;16.25;11.38;;;12.00;99.90;;;;;;5070998;28;20051;-72
2022/04/27 08:21:51;;;;;;;16.65;11.75;;;12.20;99.90;;;;;;5103331;28;20024;-71
2022/04/27 08:24:19;;;;;;;16.38;12.07;;;12.30;99.90;;;;;;5071309;28;20418;-71
2022/04/27 08:26:45;;;;;;;13.55;11.45;;;12.20;99.90;;;;;;5070449;28;20078;-72
2022/04/27 08:29:11;;;;;;;15.48;11.07;;;12.20;99.90;;;;;;5071440;28;20484;-71
2022/04/27 08:31:37;;;;;;;15.60;12.43;;;12.10;99.90;;;;;;5072346;28;20111;-72
2022/04/27 08:34:03;;;;;;;17.23;12.77;;;12.10;99.90;;;;;;5090980;28;20131;-72
2022/04/27 08:36:28;;;;;;;16.65;11.23;;;12.10;99.90;;;;;;5079872;28;20107;-71
2022/04/27 08:38:54;;;;;;;16.33;12.98;;;12.10;99.90;;;;;;5070573;28;20115;-71
2022/04/27 08:41:20;;;;;;;17.73;13.63;;;12.10;99.90;;;;;;5070920;28;20029;-72
2022/04/27 08:43:46;;;;;;;17.48;12.98;;;12.20;99.90;;;;;;5069263;28;20024;-72
2022/04/27 08:46:13;;;;;;;18.10;13.60;;;12.40;99.90;;;;;;5071029;28;20432;-72
2022/04/27 08:48:39;;;;;;;16.30;11.55;;;12.70;99.90;;;;;;5070269;28;20024;-72
2022/04/27 08:51:05;;;;;;;16.65;12.52;;;13.00;99.90;;;;;;5075159;28;20535;-72
2022/04/27 08:53:32;;;;;;;14.60;11.93;;;13.10;99.90;;;;;;5074473;28;20094;-72
2022/04/27 08:55:57;;;;;;;17.88;12.30;;;13.30;99.90;;;;;;5074069;28;20028;-72
2022/04/27 08:58:24;;;;;;;16.40;11.85;;;13.40;99.90;;;;;;5074290;28;20085;-72
2022/04/27 09:00:50;;;;;;;14.55;11.18;;;13.50;99.90;;;;;;5073862;28;20020;-72
2022/04/27 09:03:30;;;;;;;14.52;11.10;;;13.50;99.90;;;;;;5107869;28;20449;-72
2022/04/27 09:06:04;;;;;;;16.45;11.63;;;13.50;99.90;;;;;;5086195;28;20108;-72
2022/04/27 09:08:40;;;;;;;16.73;12.00;;;13.50;99.90;;;;;;5074490;28;20053;-72
2022/04/27 09:11:16;;;;;;;19.38;10.32;;;13.60;99.90;;;;;;5074240;28;20037;-72
2022/04/27 09:14:01;;;;;;;14.93;10.70;;;13.50;99.90;;;;;;5072954;28;20504;-72
2022/04/27 09:22:11;;;;;;;11.88;8.35;;;13.50;99.90;;;;;;5073946;28;20040;-71
2022/04/27 09:24:53;;;;;;;10.25;7.63;;;13.50;99.90;;;;;;5074286;28;20370;-71
2022/04/27 09:27:21;;;;;;;8.90;7.22;;;13.60;99.90;;;;;;5073989;28;20070;-71
2022/04/27 09:29:58;;;;;;;9.77;6.55;;;13.70;99.90;;;;;;5073411;28;20085;-71
2022/04/27 09:32:24;;;;;;;9.20;7.32;;;13.80;99.90;;;;;;5079394;28;20036;-71
2022/04/27 09:34:50;;;;;;;9.07;7.35;;;13.80;99.90;;;;;;5093148;28;20479;-71
2022/04/27 09:37:25;;;;;;;8.20;6.90;;;13.60;99.90;;;;;;5075881;28;20738;-71
2022/04/27 09:40:04;;;;;;;9.52;6.90;;;13.60;99.90;;;;;;5073466;28;20031;-72
2022/04/27 09:42:37;;;;;;;9.88;6.82;;;13.40;99.90;;;;;;5067889;27;20032;-71
2022/04/27 09:45:19;;;;;;;7.65;6.10;;;13.20;99.90;;;;;;5071983;28;20418;-72
2022/04/27 09:48:00;;;;;;;8.57;5.68;;;13.30;99.90;;;;;;5053132;28;20029;-72
2022/04/27 09:50:26;;;;;;;5.53;5.03;;;13.40;99.90;;;;;;5072033;28;20032;-72
2022/04/27 09:52:51;;;;;;;8.27;5.47;;;13.30;99.90;;;;;;5072486;28;20124;-72
2022/04/27 09:55:18;;;;;;;5.57;4.70;;;13.40;99.90;;;;;;5073341;28;20036;-72
2022/04/27 09:57:44;;;;;;;6.35;4.72;;;13.40;99.90;;;;;;5072863;28;20024;-72
2022/04/27 10:00:12;;;;;;;5.55;4.75;;;13.30;99.90;;;;;;5072599;28;20024;-71
2022/04/27 10:02:43;;;;;;;5.55;4.13;;;13.30;99.90;;;;;;5073453;28;20077;-71
2022/04/27 10:05:09;;;;;;;6.18;4.22;;;13.30;99.90;;;;;;5075664;28;20021;-80
2022/04/27 10:07:35;;;;;;;6.35;5.18;;;13.30;99.90;;;;;;5073488;28;20040;-72
2022/04/27 10:10:04;;;;;;;5.93;4.45;;;13.30;99.90;;;;;;5072915;28;20044;-71
2022/04/27 10:12:35;;;;;;;5.63;4.32;;;13.50;99.90;;;;;;5072965;28;20366;-72
2022/04/27 10:15:01;;;;;;;5.05;4.22;;;13.70;99.90;;;;;;5071286;28;20029;-72
2022/04/27 10:17:28;;;;;;;5.20;4.22;;;13.90;99.90;;;;;;5073406;28;20024;-72
2022/04/27 10:19:54;;;;;;;5.63;4.60;;;14.10;99.90;;;;;;5072399;28;20058;-71
2022/04/27 10:22:33;;;;;;;5.40;4.90;;;14.20;99.90;;;;;;5073048;28;20021;-72
2022/04/27 10:25:11;;;;;;;4.88;3.75;;;14.40;99.90;;;;;;5072348;28;20035;-71
2022/04/27 10:27:39;;;;;;;3.75;3.33;;;14.40;99.90;;;;;;5072894;28;20032;-72
2022/04/27 10:30:10;;;;;;;7.57;4.32;;;14.60;99.90;;;;;;5072216;28;20032;-75
2022/04/27 10:32:49;;;;;;;4.93;4.13;;;14.70;99.90;;;;;;5072311;27;20036;-69
2022/04/27 10:35:19;;;;;;;7.00;3.95;;;14.80;99.40;;;;;;5090968;28;20115;-69
2022/04/27 10:37:59;;;;;;;4.10;3.70;;;14.90;99.30;;;;;;5092121;28;20032;-72
2022/04/27 10:40:40;;;;;;;4.85;3.58;;;15.00;99.90;;;;;;5077269;28;20107;-70
2022/04/27 10:43:10;;;;;;;3.97;2.90;;;15.00;99.40;;;;;;5068626;28;20048;-70
2022/04/27 10:45:43;;;;;;;4.90;3.70;;;15.10;99.70;;;;;;5071820;28;20029;-70
2022/04/27 10:48:16;;;;;;;3.53;3.22;;;15.10;98.10;;;;;;5072426;28;20037;-70
2022/04/27 10:51:06;;;;;;;3.92;3.30;;;14.90;98.50;;;;;;5071906;28;20028;-71
2022/04/27 10:53:43;;;;;;;4.25;3.33;;;14.80;97.90;;;;;;5072113;28;20136;-70
2022/04/27 10:56:26;;;;;;;4.97;3.30;;;14.80;99.00;;;;;;5072304;28;20032;-69
2022/04/27 10:58:52;;;;;;;3.97;3.47;;;14.90;98.60;;;;;;5071851;28;20028;-70
2022/04/27 11:01:25;;;;;;;3.80;3.13;;;14.80;99.90;;;;;;5071866;28;20064;-71
2022/04/27 11:04:07;;;;;;;4.55;3.70;;;14.90;98.60;;;;;;5082319;28;20071;-70
2022/04/27 11:07:00;;;;;;;3.85;3.53;;;14.70;97.20;;;;;;5077432;28;20032;-70
2022/04/27 11:09:46;;;;;;;4.82;3.92;;;14.50;97.70;;;;;;5071548;28;20190;-70
2022/04/27 11:12:12;;;;;;;4.20;3.72;;;14.50;98.60;;;;;;5071655;28;20040;-70
2022/04/27 11:14:39;;;;;;;4.03;3.63;;;14.50;98.70;;;;;;5072315;28;20112;-71
2022/04/27 11:17:06;;;;;;;4.82;4.22;;;14.60;98.10;;;;;;5071449;28;20583;-70
2022/04/27 11:19:36;;;;;;;6.57;4.30;;;14.70;97.50;;;;;;5071761;28;20028;-70
2022/04/27 11:22:15;;;;;;;;;;;14.70;98.90;;;;;;5071890;28;20390;-71
2022/04/27 11:24:42;;;;;;;5.75;3.60;;;14.70;98.90;;;;;;5071633;28;19905;-71
2022/04/27 11:27:09;;;;;;;4.07;3.67;;;15.00;99.20;;;;;;5071271;28;20158;-71
2022/04/27 11:29:37;;;;;;;4.88;4.38;;;15.50;97.50;;;;;;5071580;28;20029;-71
2022/04/27 11:32:07;;;;;;;4.55;4.15;;;15.90;95.50;;;;;;5071072;28;20033;-71
2022/04/27 11:34:33;;;;;;;7.72;4.03;;;16.20;94.60;;;;;;5074950;28;20472;-71
2022/04/27 11:37:16;;;;;;;4.28;3.88;;;16.40;94.20;;;;;;5086954;28;20115;-71
2022/04/27 11:39:41;;;;;;;8.88;4.35;;;16.50;93.40;;;;;;5071535;28;20040;-71
2022/04/27 11:42:10;;;;;;;7.47;4.50;;;16.70;93.50;;;;;;5070796;28;20039;-71
2022/04/27 11:44:35;;;;;;;4.95;4.28;;;17.00;91.60;;;;;;5071622;28;20435;-70
2022/04/27 11:47:02;;;;;;;4.88;4.38;;;17.10;90.70;;;;;;5070883;28;20048;-70
2022/04/27 11:49:28;;;;;;;14.25;4.55;;;17.10;90.70;;;;;;5071362;28;20343;-70
2022/04/27 11:51:55;;;;;;;6.07;3.72;;;17.20;92.20;;;;;;5071011;28;20043;-72
2022/04/27 11:54:28;;;;;;;6.03;4.22;;;17.30;89.50;;;;;;5071261;28;20024;-72
2022/04/27 11:56:56;;;;;;;4.03;3.47;;;17.50;88.40;;;;;;5070496;28;20115;-72
2022/04/27 11:59:22;;;;;;;4.57;3.70;;;17.70;84.70;;;;;;5071368;28;20021;-72
2022/04/27 12:01:52;;;;;;;4.15;3.75;;;17.90;83.30;;;;;;5070604;28;20024;-73
2022/04/27 12:04:18;;;;;;;4.90;4.32;;;18.00;83.60;;;;;;5085908;28;20036;-72
2022/04/27 12:06:45;;;;;;;5.95;3.67;;;18.10;81.40;;;;;;5079056;28;20551;-73
2022/04/27 12:09:21;;;;;;;3.70;3.40;;;18.30;82.70;;;;;;5070883;28;20055;-72
2022/04/27 12:11:47;;;;;;;3.75;3.45;;;18.60;81.60;;;;;;5070942;28;20063;-75
2022/04/27 12:14:18;;;;;;;3.83;3.40;;;18.50;79.90;;;;;;5071643;28;20058;-73
2022/04/27 12:16:44;;;;;;;3.95;3.58;;;18.50;78.50;;;;;;5071616;28;20036;-75
2022/04/27 12:19:10;;;;;;;3.40;3.10;;;18.70;79.60;;;;;;5069839;28;20035;-73
2022/04/27 12:21:37;;;;;;;4.07;3.38;;;18.80;78.60;;;;;;5071945;28;20028;-74
2022/04/27 12:24:17;;;;;;;3.47;3.17;;;18.60;78.70;;;;;;5071929;28;20139;-73
2022/04/27 12:26:43;;;;;;;4.90;3.50;;;18.20;79.20;;;;;;5075032;28;20029;-73
2022/04/27 12:29:08;;;;;;;4.03;3.72;;;18.00;78.30;;;;;;5074885;28;20386;-75
2022/04/27 12:31:37;;;;;;;5.45;3.53;;;17.80;77.90;;;;;;5074189;28;20685;-72
2022/04/27 12:37:29;;;;;;;3.88;3.55;;;17.70;79.40;;;;;;5083180;28;20081;-73
2022/04/27 12:39:41;;;;;;;3.10;2.80;;;17.20;80.70;;;;;;5095637;28;20112;-73
2022/04/27 12:42:09;;;;;;;3.35;3.05;;;17.00;82.40;;;;;;5086067;28;20107;-73
2022/04/27 12:44:39;;;;;;;3.83;3.47;;;17.10;82.30;;;;;;5075115;28;20035;-73
2022/04/27 12:47:05;;;;;;;;;;;17.20;82.80;;;;;;5073731;28;20279;-73
2022/04/27 12:49:35;;;;;;;3.92;3.35;;;17.30;80.00;;;;;;5074821;28;20419;-73
2022/04/27 12:52:20;;;;;;;3.90;3.60;;;17.20;79.90;;;;;;5073959;28;20036;-72
2022/04/27 12:54:47;;;;;;;3.95;3.35;;;16.90;79.60;;;;;;5073686;28;20097;-75
2022/04/27 12:57:14;;;;;;;3.90;3.55;;;16.50;81.60;;;;;;5074751;28;20017;-71
2022/04/27 13:00:00;;;;;;;3.60;3.30;;;16.20;83.10;;;;;;5074204;28;20103;-70